Genoa, Ohio
Current Conditions -  °F | °C
As of 4:53 AM on Wednesday 26 Nov 2014 (Local Time) from KTDZ Reporting Station
Overcast Overcast  
Wind Chill: 23°   Ceiling: 2000
Heat Index: 29°   Visibility: 10mi
Dew Point: 20°   Wind: 6mph
Humidity: 69%   Direction: 110°ESE
Pressure: 30.2"   Gusts: NA
Location:  41.52°N, 83.36°W
Report Text: KTDZ 260953Z AUTO 11005KT 10SM OVC020 M02/M07 A3020 RMK AO2 SLP233 T10171067 TSNO
Loading
Personal Weather Stations






























Interactive Weather Map New forecast layout! Learn more

10-Day Weather Forecast

Advertisements
Track Severe Weather on mobile